createdAt,value
2023-05-30T00:00:10.510Z,85896.20
2023-05-30T00:02:39.637Z,85896.20
2023-05-30T00:05:09.192Z,85889.60
2023-05-30T00:07:42.364Z,85886.00
2023-05-30T00:10:11.935Z,85876.60
2023-05-30T00:12:44.159Z,85872.40
2023-05-30T00:15:36.270Z,85870.40
2023-05-30T00:18:08.857Z,85867.00
2023-05-30T00:21:34.693Z,85871.40
2023-05-30T00:24:32.688Z,85867.60
2023-05-30T00:28:00.846Z,85860.20
2023-05-30T00:31:12.398Z,85851.00
2023-05-30T00:34:09.913Z,85842.00
2023-05-30T00:37:46.364Z,85835.60
2023-05-30T00:41:28.117Z,85836.00
2023-05-30T00:45:02.543Z,85828.40
2023-05-30T00:48:39.607Z,85827.60
2023-05-30T00:52:12.455Z,85818.20
2023-05-30T00:55:19.123Z,85813.60
2023-05-30T00:58:11.725Z,85812.80
2023-05-30T01:00:44.963Z,85817.80
2023-05-30T01:03:14.403Z,85808.40
2023-05-30T01:05:46.832Z,85808.00
2023-05-30T01:08:21.321Z,85804.20
2023-05-30T01:10:58.827Z,85807.80
2023-05-30T01:14:04.747Z,85806.20
2023-05-30T01:16:56.983Z,85806.80
2023-05-30T01:19:48.808Z,85812.00
2023-05-30T01:22:47.066Z,85806.80
2023-05-30T01:25:40.765Z,85812.80
2023-05-30T01:28:20.699Z,85808.80
2023-05-30T01:30:54.918Z,85805.60
2023-05-30T01:33:25.868Z,85805.80
2023-05-30T01:35:58.070Z,85806.00
2023-05-30T01:38:27.240Z,85806.60
2023-05-30T01:41:01.212Z,85812.20
2023-05-30T01:43:53.806Z,85814.40
2023-05-30T01:46:33.969Z,85817.40
2023-05-30T01:49:56.120Z,85821.20
2023-05-30T01:52:33.732Z,85824.80
2023-05-30T01:55:08.146Z,85826.60
2023-05-30T01:58:00.812Z,85827.80
2023-05-30T02:00:33.206Z,85844.60
2023-05-30T02:03:04.639Z,85845.40
2023-05-30T02:05:34.312Z,85858.40
2023-05-30T02:08:03.490Z,85864.40
2023-05-30T02:10:32.720Z,85868.60
2023-05-30T02:13:02.027Z,85882.20
2023-05-30T02:15:31.021Z,85874.20
2023-05-30T02:18:01.726Z,85874.40
2023-05-30T02:20:30.640Z,85885.20
2023-05-30T02:22:59.885Z,85877.80
2023-05-30T02:25:29.371Z,85866.40
2023-05-30T02:28:01.226Z,85864.00
2023-05-30T02:30:30.821Z,85850.20
2023-05-30T02:33:00.365Z,85861.20
2023-05-30T02:35:29.717Z,85860.40
2023-05-30T02:37:58.878Z,85866.20
2023-05-30T02:40:31.209Z,85864.80
2023-05-30T02:43:06.494Z,85869.20
2023-05-30T02:45:42.789Z,85866.20
2023-05-30T02:48:12.266Z,85869.80
2023-05-30T02:50:47.570Z,85873.00
2023-05-30T02:53:19.838Z,85867.20
2023-05-30T02:55:52.612Z,85870.80
2023-05-30T02:58:24.887Z,85874.40
2023-05-30T03:00:54.260Z,85874.00
2023-05-30T03:03:26.198Z,85876.80
2023-05-30T03:05:55.838Z,85878.20
2023-05-30T03:08:26.511Z,85875.60
2023-05-30T03:10:59.499Z,85875.60
2023-05-30T03:13:32.044Z,85879.40
2023-05-30T03:19:48.863Z,85883.00
2023-05-30T03:22:19.206Z,85884.00
2023-05-30T03:24:53.114Z,85883.40
2023-05-30T03:27:22.909Z,85884.60
2023-05-30T03:29:54.302Z,85888.00
2023-05-30T03:32:23.405Z,85887.40
2023-05-30T03:34:56.454Z,85884.00
2023-05-30T03:37:29.937Z,85885.00
2023-05-30T03:40:16.981Z,85890.40
2023-05-30T03:42:47.307Z,85891.60
2023-05-30T03:45:18.035Z,85895.20
2023-05-30T03:47:46.919Z,85903.00
2023-05-30T03:50:16.550Z,85894.60
2023-05-30T03:53:03.413Z,85901.20
2023-05-30T03:55:33.347Z,85898.60
2023-05-30T03:58:03.563Z,85906.40
2023-05-30T04:00:33.045Z,85906.80
2023-05-30T04:03:02.606Z,85908.20
2023-05-30T04:05:34.837Z,85910.40
2023-05-30T04:08:04.169Z,85910.20
2023-05-30T04:10:33.657Z,85911.20
2023-05-30T04:13:03.418Z,85912.40
2023-05-30T04:15:32.701Z,85916.20
2023-05-30T04:18:03.765Z,85913.40
2023-05-30T04:20:42.602Z,85913.60
2023-05-30T04:23:12.667Z,85918.60
2023-05-30T04:25:42.601Z,85921.60
2023-05-30T04:28:11.849Z,85918.40
2023-05-30T04:30:44.220Z,85918.60
2023-05-30T04:33:14.814Z,85919.20
2023-05-30T04:35:45.236Z,85921.20
2023-05-30T04:38:22.359Z,85923.40
2023-05-30T04:40:58.268Z,85927.20
2023-05-30T04:43:34.124Z,85926.60
2023-05-30T04:46:11.358Z,85922.40
2023-05-30T04:48:47.569Z,85926.60
2023-05-30T04:51:22.909Z,85931.00
2023-05-30T04:53:54.030Z,85931.60
2023-05-30T04:56:23.763Z,85942.80
2023-05-30T04:58:56.295Z,85937.40
2023-05-30T05:01:30.025Z,85936.60
2023-05-30T05:04:06.179Z,85937.40
2023-05-30T05:06:40.246Z,85948.20
2023-05-30T05:09:12.488Z,85947.60
2023-05-30T05:11:46.795Z,85944.60
2023-05-30T05:14:19.754Z,85950.00
2023-05-30T05:16:52.011Z,85949.40
2023-05-30T05:19:21.919Z,85955.40
2023-05-30T05:21:51.812Z,85961.60
2023-05-30T05:24:21.241Z,85954.80
2023-05-30T05:26:51.463Z,85947.40
2023-05-30T05:29:20.689Z,85946.80
2023-05-30T05:35:00.660Z,85949.20
2023-05-30T05:37:29.968Z,85943.20
2023-05-30T05:40:00.350Z,85945.60
2023-05-30T05:42:29.481Z,85944.20
2023-05-30T05:44:58.767Z,85952.20
2023-05-30T05:47:28.669Z,85952.40
2023-05-30T05:49:58.152Z,85962.60
2023-05-30T05:52:28.265Z,85959.20
2023-05-30T05:54:57.642Z,85958.40
2023-05-30T05:57:26.975Z,85959.20
2023-05-30T05:59:56.430Z,85961.00
2023-05-30T06:02:26.071Z,85965.20
2023-05-30T06:04:56.374Z,85968.80
2023-05-30T06:07:26.115Z,85966.40
2023-05-30T06:09:55.645Z,85969.60
2023-05-30T06:15:02.602Z,85980.20
2023-05-30T06:17:32.527Z,85975.20
2023-05-30T06:20:02.056Z,85981.00
2023-05-30T06:22:34.388Z,85979.60
2023-05-30T06:25:03.886Z,85976.20
2023-05-30T06:27:33.302Z,85976.80
2023-05-30T06:30:03.007Z,85985.00
2023-05-30T06:32:32.885Z,85982.80
2023-05-30T06:35:03.029Z,85978.40
2023-05-30T06:37:32.122Z,85982.60
2023-05-30T06:40:01.308Z,85981.40
2023-05-30T06:42:30.585Z,85977.20
2023-05-30T06:44:59.707Z,85979.60
2023-05-30T06:47:28.834Z,85980.00
2023-05-30T06:49:58.255Z,85980.20
2023-05-30T06:52:27.559Z,85974.20
2023-05-30T06:54:57.134Z,85972.20
2023-05-30T06:57:27.778Z,85967.60
2023-05-30T06:59:57.285Z,85962.80
2023-05-30T07:02:26.681Z,85960.40
2023-05-30T07:04:56.099Z,85962.20
2023-05-30T07:07:25.717Z,85966.40
2023-05-30T07:09:55.085Z,85966.80
2023-05-30T07:12:26.197Z,85962.60
2023-05-30T07:14:58.097Z,85959.80
2023-05-30T07:17:27.653Z,85959.20
2023-05-30T07:19:57.431Z,85965.40
2023-05-30T07:22:26.874Z,85969.00
2023-05-30T07:24:56.047Z,85966.40
2023-05-30T07:27:25.797Z,85972.40
2023-05-30T07:29:57.216Z,85965.40
2023-05-30T07:32:27.135Z,85968.40
2023-05-30T07:35:00.304Z,85966.20
2023-05-30T07:37:29.766Z,85968.20
2023-05-30T07:39:59.603Z,85964.00
2023-05-30T07:42:46.853Z,85965.00
2023-05-30T07:45:17.903Z,85962.80
2023-05-30T07:47:47.738Z,85964.20
2023-05-30T07:50:18.426Z,85962.00
2023-05-30T07:52:48.029Z,85962.60
2023-05-30T07:55:17.143Z,85962.80
2023-05-30T07:57:46.591Z,85963.20
2023-05-30T08:00:17.064Z,85965.00
2023-05-30T08:02:47.745Z,85966.20
2023-05-30T08:05:17.802Z,85963.60
2023-05-30T08:07:48.528Z,85961.00
2023-05-30T08:10:19.846Z,85970.40
2023-05-30T08:12:52.015Z,85971.60
2023-05-30T08:15:21.506Z,85964.40
2023-05-30T08:17:51.366Z,85955.00
2023-05-30T08:20:21.044Z,85958.80
2023-05-30T08:22:50.584Z,85954.00
2023-05-30T08:25:24.047Z,85953.20
2023-05-30T08:27:55.456Z,85954.20
2023-05-30T08:30:24.873Z,85954.40
2023-05-30T08:32:54.723Z,85954.40
2023-05-30T08:35:24.713Z,85956.80
2023-05-30T08:40:47.873Z,85958.80
2023-05-30T08:43:17.376Z,85957.40
2023-05-30T08:45:47.165Z,85955.60
2023-05-30T08:48:21.889Z,85960.40
2023-05-30T08:50:53.126Z,85960.20
2023-05-30T08:54:02.917Z,85962.60
2023-05-30T09:05:57.344Z,85970.40
2023-05-30T09:08:28.246Z,85964.60
2023-05-30T09:11:02.193Z,85963.60
2023-05-30T09:13:31.849Z,85962.40
2023-05-30T09:16:03.996Z,85959.80
2023-05-30T09:18:37.405Z,85963.80
2023-05-30T09:21:07.576Z,85968.20
2023-05-30T09:23:39.725Z,85967.80
2023-05-30T09:26:15.675Z,85969.40
2023-05-30T09:28:50.390Z,85964.20
2023-05-30T09:31:19.321Z,85963.80
2023-05-30T09:33:49.075Z,85967.60
2023-05-30T09:38:36.724Z,85967.60
2023-05-30T09:41:06.733Z,85963.20
2023-05-30T09:45:51.793Z,85969.60
2023-05-30T09:48:23.248Z,85970.40
2023-05-30T09:50:56.059Z,85967.60
2023-05-30T09:53:28.909Z,85967.80
2023-05-30T09:55:58.621Z,85976.20
2023-05-30T09:58:28.126Z,85974.80
2023-05-30T10:01:00.280Z,85975.80
2023-05-30T10:03:46.962Z,85980.40
2023-05-30T10:08:53.064Z,85977.40
2023-05-30T10:11:22.709Z,85979.40
2023-05-30T10:13:52.258Z,85982.00
2023-05-30T10:16:23.688Z,85979.40
2023-05-30T10:19:02.770Z,85977.40
2023-05-30T10:21:39.483Z,85977.80
2023-05-30T10:24:13.688Z,85979.40
2023-05-30T10:27:06.501Z,85974.20
2023-05-30T10:30:01.027Z,85979.20
2023-05-30T10:33:11.824Z,85974.00
2023-05-30T10:35:41.512Z,85968.60
2023-05-30T10:38:13.844Z,85971.40
2023-05-30T10:41:04.456Z,85973.80
2023-05-30T10:43:57.821Z,85971.20
2023-05-30T10:47:17.307Z,85972.60
2023-05-30T10:49:51.958Z,85973.60
2023-05-30T10:52:34.289Z,85972.00
2023-05-30T10:55:09.162Z,85973.20
2023-05-30T10:57:38.904Z,85976.40
2023-05-30T11:00:31.874Z,85976.20
2023-05-30T11:03:03.346Z,85982.40
2023-05-30T11:05:36.784Z,85985.80
2023-05-30T11:08:06.218Z,85990.40
2023-05-30T11:10:37.864Z,85990.20
2023-05-30T11:13:14.137Z,85981.60
2023-05-30T11:15:48.504Z,85983.40
2023-05-30T11:18:23.570Z,85987.80
2023-05-30T11:20:58.434Z,85988.20
2023-05-30T11:23:29.565Z,85987.40
2023-05-30T11:26:00.973Z,85992.80
2023-05-30T11:28:39.286Z,85990.00
2023-05-30T11:31:21.949Z,85989.40
2023-05-30T11:33:54.080Z,85991.40
2023-05-30T11:36:23.812Z,85992.80
2023-05-30T11:38:54.978Z,86001.20
2023-05-30T11:41:25.679Z,86000.60
2023-05-30T11:43:55.073Z,85999.00
2023-05-30T11:46:24.449Z,85993.00
2023-05-30T11:49:02.492Z,85999.00
2023-05-30T11:51:32.833Z,85995.80
2023-05-30T11:54:04.045Z,85993.80
2023-05-30T11:56:33.635Z,85995.40
2023-05-30T11:59:03.126Z,85998.00
2023-05-30T12:01:32.979Z,86005.00
2023-05-30T12:04:02.471Z,86004.00
2023-05-30T12:06:34.228Z,86000.20
2023-05-30T12:09:03.638Z,86001.40
2023-05-30T12:11:32.986Z,86002.20
2023-05-30T12:14:05.490Z,86006.60
2023-05-30T12:16:35.720Z,86009.60
2023-05-30T12:19:06.630Z,86006.60
2023-05-30T12:21:39.271Z,86011.20
2023-05-30T12:24:14.055Z,86012.00
2023-05-30T12:26:55.803Z,86008.00
2023-05-30T12:29:29.660Z,86002.00
2023-05-30T12:31:58.880Z,86008.40
2023-05-30T12:36:42.471Z,85996.80
2023-05-30T12:39:11.922Z,85993.40
2023-05-30T12:41:43.142Z,85997.20
2023-05-30T12:44:19.862Z,86000.60
2023-05-30T12:46:49.627Z,85998.00
2023-05-30T12:49:19.055Z,85991.60
2023-05-30T12:52:03.529Z,85991.00
2023-05-30T12:55:26.544Z,85993.40
2023-05-30T12:58:00.484Z,85994.00
2023-05-30T13:00:35.422Z,85984.60
2023-05-30T13:03:07.988Z,85980.00
2023-05-30T13:05:38.455Z,85981.40
2023-05-30T13:08:07.882Z,85978.60
2023-05-30T13:10:38.587Z,85977.00
2023-05-30T13:13:11.676Z,85970.80
2023-05-30T13:15:40.911Z,85980.40
2023-05-30T13:18:10.505Z,85979.00
2023-05-30T13:20:39.776Z,85980.40
2023-05-30T13:23:09.195Z,85975.00
2023-05-30T13:25:38.183Z,85974.20
2023-05-30T13:28:07.864Z,85972.80
2023-05-30T13:30:37.451Z,85971.80
2023-05-30T13:35:44.301Z,85983.80
2023-05-30T13:38:13.876Z,85984.00
2023-05-30T13:40:43.262Z,85991.20
2023-05-30T13:43:13.099Z,85986.40
2023-05-30T13:45:51.424Z,85984.20
2023-05-30T13:48:24.139Z,85982.00
2023-05-30T13:50:53.857Z,85985.80
2023-05-30T13:53:30.173Z,85980.00
2023-05-30T13:56:05.639Z,85977.40
2023-05-30T13:58:36.995Z,85980.40
2023-05-30T14:01:06.633Z,85977.80
2023-05-30T14:03:40.288Z,85971.20
2023-05-30T14:07:34.269Z,85967.00
2023-05-30T14:10:03.579Z,85969.80
2023-05-30T14:12:33.210Z,85972.40
2023-05-30T14:15:06.094Z,85973.20
2023-05-30T14:17:35.709Z,85971.60
2023-05-30T14:20:06.577Z,85967.00
2023-05-30T14:22:36.170Z,85963.80
2023-05-30T14:25:05.688Z,85964.20
2023-05-30T14:27:35.872Z,85962.60
2023-05-30T14:30:06.356Z,85960.80
2023-05-30T14:32:35.996Z,85963.60
2023-05-30T14:35:05.804Z,85960.60
2023-05-30T14:37:35.496Z,85956.60
2023-05-30T14:40:06.697Z,85960.40
2023-05-30T14:42:37.318Z,85955.40
2023-05-30T14:45:07.923Z,85958.20
2023-05-30T14:47:37.782Z,85960.60
2023-05-30T14:50:08.169Z,85959.20
2023-05-30T14:52:44.330Z,85960.40
2023-05-30T14:55:14.718Z,85954.40
2023-05-30T14:57:43.966Z,85953.20
2023-05-30T15:00:14.075Z,85947.00
2023-05-30T15:02:44.107Z,85942.60
2023-05-30T15:05:13.994Z,85940.60
2023-05-30T15:07:43.194Z,85942.00
2023-05-30T15:10:12.814Z,85938.60
2023-05-30T15:12:44.337Z,85938.00
2023-05-30T15:15:14.233Z,85929.40
2023-05-30T15:17:44.013Z,85930.60
2023-05-30T15:20:13.378Z,85931.20
2023-05-30T15:22:45.800Z,85931.00
2023-05-30T15:25:15.850Z,85927.20
2023-05-30T15:27:45.092Z,85931.00
2023-05-30T15:30:14.699Z,85932.40
2023-05-30T15:32:44.292Z,85928.20
2023-05-30T15:35:14.121Z,85924.00
2023-05-30T15:37:43.585Z,85926.80
2023-05-30T15:40:14.824Z,85922.00
2023-05-30T15:42:44.049Z,85925.40
2023-05-30T15:45:14.552Z,85918.20
2023-05-30T15:47:44.938Z,85919.00
2023-05-30T15:50:16.018Z,85918.00
2023-05-30T15:52:45.799Z,85913.00
2023-05-30T15:55:15.959Z,85915.20
2023-05-30T15:58:05.754Z,85903.80
2023-05-30T16:00:38.921Z,85910.40
2023-05-30T16:03:08.289Z,85908.00
2023-05-30T16:05:37.598Z,85903.20
2023-05-30T16:08:07.343Z,85905.40
2023-05-30T16:10:38.633Z,85899.20
2023-05-30T16:13:08.634Z,85895.80
2023-05-30T16:15:38.679Z,85893.00
2023-05-30T16:18:09.356Z,85891.60
2023-05-30T16:20:40.599Z,85888.20
2023-05-30T16:23:09.877Z,85881.00
2023-05-30T16:25:39.341Z,85877.80
2023-05-30T16:28:08.659Z,85874.40
2023-05-30T16:30:49.641Z,85872.40
2023-05-30T16:36:09.602Z,85864.00
2023-05-30T16:38:42.946Z,85862.60
2023-05-30T16:41:14.019Z,85862.20
2023-05-30T16:43:44.355Z,85860.00
2023-05-30T16:46:19.380Z,85868.80
2023-05-30T16:49:05.844Z,85871.20
2023-05-30T16:51:35.468Z,85870.40
2023-05-30T16:54:06.039Z,85872.40
2023-05-30T16:56:36.774Z,85876.80
2023-05-30T16:59:07.301Z,85883.00
2023-05-30T17:01:37.687Z,85904.80
2023-05-30T17:04:08.399Z,85917.80
2023-05-30T17:06:38.782Z,85948.80
2023-05-30T17:09:10.025Z,85945.40
2023-05-30T17:11:40.248Z,85940.00
2023-05-30T17:14:09.936Z,85950.20
2023-05-30T17:16:40.497Z,85928.60
2023-05-30T17:19:17.620Z,85915.00
2023-05-30T17:21:58.137Z,85912.60
2023-05-30T17:24:27.912Z,85913.80
2023-05-30T17:26:57.121Z,85914.60
2023-05-30T17:29:26.837Z,85911.20
2023-05-30T17:31:56.947Z,85907.80
2023-05-30T17:34:27.994Z,85902.80
2023-05-30T17:36:57.493Z,85904.40
2023-05-30T17:39:27.060Z,85899.40
2023-05-30T17:44:17.347Z,85892.60
2023-05-30T17:46:47.127Z,85889.00
2023-05-30T17:49:16.530Z,85880.60
2023-05-30T17:51:46.146Z,85870.60
2023-05-30T17:54:18.589Z,85870.00
2023-05-30T17:56:47.597Z,85868.00
2023-05-30T17:59:17.024Z,85866.80
2023-05-30T18:01:46.361Z,85863.80
2023-05-30T18:04:15.667Z,85859.60
2023-05-30T18:06:47.880Z,85853.20
2023-05-30T18:11:39.932Z,85858.80
2023-05-30T18:14:09.095Z,85855.40
2023-05-30T18:16:38.439Z,85865.00
2023-05-30T18:19:07.598Z,85874.80
2023-05-30T18:21:37.191Z,85880.80
2023-05-30T18:24:07.094Z,85897.80
2023-05-30T18:26:37.185Z,85918.60
2023-05-30T18:29:06.981Z,85929.80
2023-05-30T18:31:37.918Z,85951.60
2023-05-30T18:34:08.056Z,85959.20
2023-05-30T18:36:37.390Z,85942.80
2023-05-30T18:39:07.261Z,85927.00
2023-05-30T18:41:36.589Z,85931.00
2023-05-30T18:44:08.059Z,85936.80
2023-05-30T18:46:38.525Z,85932.40
2023-05-30T18:49:07.773Z,85919.80
2023-05-30T18:51:37.808Z,85911.60
2023-05-30T18:54:11.660Z,85927.80
2023-05-30T18:56:40.728Z,85930.60
2023-05-30T18:59:10.245Z,85937.80
2023-05-30T19:01:39.596Z,85932.60
2023-05-30T19:04:10.868Z,85920.80
2023-05-30T19:06:40.158Z,85911.40
2023-05-30T19:09:09.585Z,85899.60
2023-05-30T19:11:39.349Z,85901.40
2023-05-30T19:14:08.999Z,85889.60
2023-05-30T19:16:38.358Z,85886.60
2023-05-30T19:19:07.754Z,85883.60
2023-05-30T19:21:42.347Z,85881.20
2023-05-30T19:24:11.834Z,85876.40
2023-05-30T19:26:41.189Z,85871.40
2023-05-30T19:29:10.534Z,85876.60
2023-05-30T19:31:39.814Z,85874.80
2023-05-30T19:34:08.984Z,85862.40
2023-05-30T19:36:38.826Z,85861.60
2023-05-30T19:39:08.124Z,85860.60
2023-05-30T19:41:38.460Z,85849.80
2023-05-30T19:46:32.832Z,85835.40
2023-05-30T19:49:02.255Z,85832.40
2023-05-30T19:51:32.160Z,85830.60
2023-05-30T19:54:02.930Z,85826.20
2023-05-30T19:56:32.152Z,85822.00
2023-05-30T19:59:01.601Z,85820.40
2023-05-30T20:01:31.303Z,85817.40
2023-05-30T20:04:02.985Z,85815.60
2023-05-30T20:06:35.371Z,85816.40
2023-05-30T20:09:04.835Z,85819.40
2023-05-30T20:11:34.008Z,85817.60
2023-05-30T20:14:03.576Z,85816.20
2023-05-30T20:16:33.453Z,85821.00
2023-05-30T20:19:03.688Z,85845.60
2023-05-30T20:21:33.133Z,85882.00
2023-05-30T20:24:02.690Z,85906.40
2023-05-30T20:26:33.394Z,85903.60
2023-05-30T20:29:03.207Z,85934.00
2023-05-30T20:31:32.471Z,85955.00
2023-05-30T20:34:01.950Z,85962.40
2023-05-30T20:36:31.423Z,85960.80
2023-05-30T20:39:00.929Z,85956.60
2023-05-30T20:41:30.658Z,85928.00
2023-05-30T20:44:00.039Z,85912.60
2023-05-30T20:46:29.293Z,85891.00
2023-05-30T20:48:58.471Z,85899.80
2023-05-30T20:51:27.846Z,85898.40
2023-05-30T20:53:57.547Z,85902.60
2023-05-30T20:56:27.862Z,85899.40
2023-05-30T20:58:57.154Z,85894.80
2023-05-30T21:01:26.984Z,85895.20
2023-05-30T21:06:16.237Z,85885.00
2023-05-30T21:08:45.682Z,85881.60
2023-05-30T21:11:14.824Z,85876.20
2023-05-30T21:13:47.265Z,85868.60
2023-05-30T21:16:17.516Z,85870.00
2023-05-30T21:18:47.064Z,85861.60
2023-05-30T21:21:17.009Z,85860.00
2023-05-30T21:23:46.007Z,85859.20
2023-05-30T21:26:15.082Z,85845.60
2023-05-30T21:28:44.284Z,85843.60
2023-05-30T21:31:14.314Z,85847.00
2023-05-30T21:33:43.948Z,85842.80
2023-05-30T21:36:13.947Z,85859.60
2023-05-30T21:38:43.860Z,85907.20
2023-05-30T21:41:13.543Z,85930.40
2023-05-30T21:43:43.634Z,85931.00
2023-05-30T21:46:13.828Z,85926.40
2023-05-30T21:48:43.336Z,85879.80
2023-05-30T21:51:12.509Z,85843.00
2023-05-30T21:53:41.653Z,85842.80
2023-05-30T21:56:11.203Z,85840.00
2023-05-30T21:58:40.847Z,85825.00
2023-05-30T22:01:10.114Z,85820.80
2023-05-30T22:03:39.707Z,85828.80
2023-05-30T22:06:09.153Z,85820.20
2023-05-30T22:11:38.932Z,85810.00
2023-05-30T22:14:08.263Z,85805.40
2023-05-30T22:16:37.431Z,85804.60
2023-05-30T22:19:07.081Z,85797.60
2023-05-30T22:21:48.027Z,85794.80
2023-05-30T22:24:25.084Z,85785.60
2023-05-30T22:26:54.442Z,85786.60
2023-05-30T22:29:23.658Z,85789.00
2023-05-30T22:31:53.894Z,85775.60
2023-05-30T22:34:23.077Z,85781.20
2023-05-30T22:36:52.352Z,85781.60
2023-05-30T22:39:21.504Z,85785.60
2023-05-30T22:41:50.993Z,85798.60
2023-05-30T22:44:20.554Z,85773.00
2023-05-30T22:46:49.871Z,85782.20
2023-05-30T22:49:35.963Z,85772.60
2023-05-30T22:52:05.698Z,85770.60
2023-05-30T22:54:35.032Z,85768.00
2023-05-30T22:57:04.390Z,85765.20
2023-05-30T22:59:36.122Z,85748.40
2023-05-30T23:02:05.965Z,85758.00
2023-05-30T23:04:36.540Z,85763.80
2023-05-30T23:07:06.629Z,85749.00
2023-05-30T23:09:36.483Z,85735.80
2023-05-30T23:12:06.681Z,85741.20
2023-05-30T23:14:35.997Z,85741.80
2023-05-30T23:17:05.901Z,85741.60
2023-05-30T23:19:35.597Z,85739.20
2023-05-30T23:22:11.440Z,85745.80
2023-05-30T23:24:41.151Z,85763.00
2023-05-30T23:27:10.575Z,85752.60
2023-05-30T23:29:39.958Z,85748.60
2023-05-30T23:32:10.070Z,85757.60
2023-05-30T23:34:39.885Z,85745.80
2023-05-30T23:37:10.165Z,85757.20
2023-05-30T23:39:40.157Z,85749.00
2023-05-30T23:42:10.159Z,85752.20
2023-05-30T23:44:39.984Z,85750.40
2023-05-30T23:47:10.023Z,85751.00
2023-05-30T23:49:40.180Z,85754.60
2023-05-30T23:52:10.338Z,85758.60
2023-05-30T23:54:39.667Z,85749.40
2023-05-30T23:57:13.812Z,85749.60
2023-05-30T23:59:43.395Z,85762.80
